createdAt,value
2018-05-11T00:00:56.619Z,13.82
2018-05-11T00:03:24.944Z,13.81
2018-05-11T00:05:53.078Z,13.83
2018-05-11T00:08:21.215Z,13.76
2018-05-11T00:10:49.519Z,13.67
2018-05-11T00:13:17.624Z,13.63
2018-05-11T00:15:45.731Z,13.60
2018-05-11T00:18:13.855Z,13.54
2018-05-11T00:20:41.994Z,13.56
2018-05-11T00:23:10.117Z,13.60
2018-05-11T00:25:38.242Z,13.55
2018-05-11T00:28:06.374Z,13.55
2018-05-11T00:30:34.508Z,13.43
2018-05-11T00:33:02.629Z,13.40
2018-05-11T00:35:30.767Z,13.46
2018-05-11T00:37:58.939Z,13.44
2018-05-11T00:40:27.311Z,13.37
2018-05-11T00:42:55.502Z,13.30
2018-05-11T00:45:23.647Z,13.22
2018-05-11T00:47:51.766Z,13.24
2018-05-11T00:50:19.892Z,13.22
2018-05-11T00:52:47.994Z,13.26
2018-05-11T00:55:28.006Z,13.26
2018-05-11T00:57:56.110Z,13.26
2018-05-11T01:00:24.215Z,13.25
2018-05-11T01:02:52.371Z,13.16
2018-05-11T01:05:20.489Z,13.14
2018-05-11T01:07:48.608Z,13.05
2018-05-11T01:10:16.750Z,13.08
2018-05-11T01:12:44.873Z,13.04
2018-05-11T01:15:12.994Z,13.09
2018-05-11T01:17:41.102Z,13.04
2018-05-11T01:20:09.254Z,12.98
2018-05-11T01:22:37.379Z,12.94
2018-05-11T01:25:05.505Z,12.91
2018-05-11T01:27:33.633Z,12.93
2018-05-11T01:30:01.765Z,12.94
2018-05-11T01:32:29.894Z,12.90
2018-05-11T01:34:58.036Z,12.90
2018-05-11T01:37:26.153Z,12.90
2018-05-11T01:39:55.143Z,12.85
2018-05-11T01:42:23.263Z,12.86
2018-05-11T01:44:51.415Z,12.84
2018-05-11T01:47:19.620Z,12.78
2018-05-11T01:49:47.801Z,12.69
2018-05-11T01:52:15.906Z,12.68
2018-05-11T01:54:44.049Z,12.70
2018-05-11T01:57:12.173Z,12.65
2018-05-11T01:59:40.411Z,12.54
2018-05-11T02:02:08.530Z,12.59
2018-05-11T02:04:36.681Z,12.66
2018-05-11T02:07:04.793Z,12.69
2018-05-11T02:09:32.933Z,12.63
2018-05-11T02:12:01.057Z,12.50
2018-05-11T02:14:29.187Z,12.45
2018-05-11T02:16:57.332Z,12.38
2018-05-11T02:19:25.456Z,12.30
2018-05-11T02:21:53.583Z,12.47
2018-05-11T02:24:21.711Z,12.48
2018-05-11T02:26:49.840Z,12.43
2018-05-11T02:29:17.970Z,12.23
2018-05-11T02:31:46.079Z,12.30
2018-05-11T02:34:14.202Z,12.33
2018-05-11T02:36:42.336Z,12.35
2018-05-11T02:39:10.584Z,12.35
2018-05-11T02:41:38.622Z,12.24
2018-05-11T02:44:06.770Z,12.25
2018-05-11T02:46:34.903Z,12.22
2018-05-11T02:49:03.030Z,12.30
2018-05-11T02:51:31.167Z,12.23
2018-05-11T02:53:59.313Z,12.24
2018-05-11T02:56:27.454Z,12.32
2018-05-11T02:58:55.553Z,12.23
2018-05-11T03:01:23.711Z,12.10
2018-05-11T03:03:51.829Z,12.16
2018-05-11T03:06:19.947Z,12.18
2018-05-11T03:08:48.076Z,12.21
2018-05-11T03:11:16.206Z,12.18
2018-05-11T03:13:44.356Z,12.15
2018-05-11T03:16:12.466Z,12.04
2018-05-11T03:18:40.630Z,12.04
2018-05-11T03:21:08.744Z,12.08
2018-05-11T03:23:36.883Z,12.03
2018-05-11T03:26:04.998Z,12.00
2018-05-11T03:28:33.125Z,12.02
2018-05-11T03:31:01.266Z,12.00
2018-05-11T03:33:29.394Z,11.96
2018-05-11T03:35:57.531Z,12.02
2018-05-11T03:38:25.849Z,12.04
2018-05-11T03:40:54.170Z,11.96
2018-05-11T03:43:22.297Z,12.01
2018-05-11T03:45:50.438Z,12.04
2018-05-11T03:48:18.590Z,12.02
2018-05-11T03:50:46.695Z,12.06
2018-05-11T03:53:14.841Z,11.98
2018-05-11T03:55:42.951Z,11.96
2018-05-11T03:58:11.085Z,11.94
2018-05-11T04:00:39.202Z,11.97
2018-05-11T04:03:19.155Z,11.97
2018-05-11T04:05:59.151Z,12.00
2018-05-11T04:08:48.126Z,11.98
2018-05-11T04:11:16.259Z,11.97
2018-05-11T04:13:44.404Z,12.05
2018-05-11T04:16:12.529Z,12.10
2018-05-11T04:18:40.674Z,12.14
2018-05-11T04:21:08.787Z,12.16
2018-05-11T04:23:36.925Z,12.16
2018-05-11T04:26:05.080Z,12.13
2018-05-11T04:28:33.208Z,12.18
2018-05-11T04:31:01.353Z,12.27
2018-05-11T04:33:29.512Z,12.37
2018-05-11T04:35:57.638Z,12.41
2018-05-11T04:38:25.768Z,12.37
2018-05-11T04:40:54.117Z,12.45
2018-05-11T04:43:22.241Z,12.46
2018-05-11T04:45:50.581Z,12.51
2018-05-11T04:48:18.715Z,12.57
2018-05-11T04:50:46.837Z,12.56
2018-05-11T04:53:14.970Z,12.59
2018-05-11T04:55:43.113Z,12.64
2018-05-11T04:58:11.247Z,12.66
2018-05-11T05:00:39.392Z,12.74
2018-05-11T05:03:07.596Z,12.70
2018-05-11T05:05:35.706Z,12.70
2018-05-11T05:08:03.834Z,12.76
2018-05-11T05:10:31.962Z,12.88
2018-05-11T05:13:00.098Z,12.91
2018-05-11T05:15:28.351Z,12.94
2018-05-11T05:17:56.511Z,13.56
2018-05-11T05:20:24.634Z,13.31
2018-05-11T05:22:52.766Z,13.22
2018-05-11T05:25:20.913Z,13.14
2018-05-11T05:27:49.047Z,13.12
2018-05-11T05:30:17.236Z,13.17
2018-05-11T05:32:45.391Z,13.20
2018-05-11T05:35:13.547Z,13.21
2018-05-11T05:37:41.697Z,13.22
2018-05-11T05:40:09.851Z,13.23
2018-05-11T05:42:37.985Z,13.27
2018-05-11T05:45:06.112Z,13.23
2018-05-11T05:47:34.252Z,13.28
2018-05-11T05:50:02.364Z,13.39
2018-05-11T05:52:30.505Z,13.32
2018-05-11T05:54:58.660Z,13.48
2018-05-11T05:57:26.781Z,13.59
2018-05-11T05:59:54.969Z,13.59
2018-05-11T06:02:23.350Z,13.53
2018-05-11T06:04:51.390Z,13.57
2018-05-11T06:07:19.517Z,13.53
2018-05-11T06:09:51.075Z,13.68
2018-05-11T06:12:19.216Z,13.68
2018-05-11T06:14:47.345Z,13.72
2018-05-11T06:17:15.477Z,13.86
2018-05-11T06:19:43.608Z,13.94
2018-05-11T06:22:11.731Z,13.95
2018-05-11T06:24:39.903Z,13.92
2018-05-11T06:27:08.003Z,13.98
2018-05-11T06:29:36.152Z,14.05
2018-05-11T06:32:04.291Z,14.14
2018-05-11T06:34:32.406Z,14.28
2018-05-11T06:37:00.521Z,14.32
2018-05-11T06:39:29.037Z,14.35
2018-05-11T06:41:57.187Z,14.37
2018-05-11T06:44:25.296Z,14.45
2018-05-11T06:46:53.669Z,14.53
2018-05-11T06:49:21.799Z,14.60
2018-05-11T06:51:49.926Z,14.61
2018-05-11T06:54:18.315Z,14.82
2018-05-11T06:56:46.429Z,14.97
2018-05-11T06:59:14.553Z,14.98
2018-05-11T07:01:42.829Z,14.72
2018-05-11T07:04:10.962Z,14.74
2018-05-11T07:06:39.102Z,14.61
2018-05-11T07:09:07.439Z,14.71
2018-05-11T07:11:35.576Z,14.69
2018-05-11T07:14:03.705Z,14.84
2018-05-11T07:16:31.935Z,15.11
2018-05-11T07:19:00.054Z,14.84
2018-05-11T07:21:28.189Z,14.69
2018-05-11T07:23:56.333Z,14.81
2018-05-11T07:26:24.457Z,15.07
2018-05-11T07:28:52.585Z,15.00
2018-05-11T07:31:20.723Z,15.08
2018-05-11T07:33:48.854Z,15.10
2018-05-11T07:36:17.251Z,15.08
2018-05-11T07:38:45.434Z,15.01
2018-05-11T07:41:16.868Z,15.12
2018-05-11T07:43:44.989Z,15.10
2018-05-11T07:46:13.135Z,15.06
2018-05-11T07:48:41.278Z,15.26
2018-05-11T07:51:09.417Z,15.15
2018-05-11T07:53:37.532Z,15.27
2018-05-11T07:56:05.684Z,15.21
2018-05-11T07:58:33.841Z,15.04
2018-05-11T08:01:01.959Z,15.22
2018-05-11T08:03:30.094Z,15.31
2018-05-11T08:05:59.238Z,15.42
2018-05-11T08:08:27.365Z,15.56
2018-05-11T08:10:55.485Z,15.63
2018-05-11T08:13:23.866Z,15.60
2018-05-11T08:15:52.001Z,15.50
2018-05-11T08:18:20.147Z,15.46
2018-05-11T08:20:48.295Z,15.70
2018-05-11T08:23:16.426Z,15.68
2018-05-11T08:25:44.545Z,15.59
2018-05-11T08:28:12.670Z,15.84
2018-05-11T08:30:40.799Z,15.91
2018-05-11T08:33:08.943Z,15.71
2018-05-11T08:35:37.069Z,15.82
2018-05-11T08:38:05.207Z,15.98
2018-05-11T08:40:33.348Z,16.16
2018-05-11T08:43:01.506Z,16.06
2018-05-11T08:45:29.622Z,15.92
2018-05-11T08:47:57.786Z,15.94
2018-05-11T08:50:25.918Z,15.99
2018-05-11T08:52:54.041Z,16.12
2018-05-11T08:55:22.169Z,16.17
2018-05-11T08:57:50.316Z,16.23
2018-05-11T09:00:18.460Z,16.18
2018-05-11T09:02:46.581Z,16.03
2018-05-11T09:05:14.741Z,15.88
2018-05-11T09:07:42.850Z,16.08
2018-05-11T09:10:10.966Z,16.31
2018-05-11T09:12:39.146Z,16.31
2018-05-11T09:15:07.283Z,16.45
2018-05-11T09:17:35.425Z,16.47
2018-05-11T09:20:03.764Z,16.41
2018-05-11T09:22:31.867Z,16.36
2018-05-11T09:24:59.980Z,16.38
2018-05-11T09:27:28.129Z,16.44
2018-05-11T09:29:56.247Z,16.51
2018-05-11T09:32:24.390Z,16.59
2018-05-11T09:34:52.524Z,16.71
2018-05-11T09:37:20.659Z,16.77
2018-05-11T09:39:48.862Z,16.84
2018-05-11T09:42:16.933Z,17.00
2018-05-11T09:44:45.075Z,17.15
2018-05-11T09:47:13.210Z,17.21
2018-05-11T09:49:41.386Z,17.22
2018-05-11T09:52:09.504Z,17.11
2018-05-11T09:54:37.649Z,17.14
2018-05-11T09:57:05.781Z,16.98
2018-05-11T09:59:33.905Z,16.79
2018-05-11T10:02:02.035Z,16.76
2018-05-11T10:04:30.151Z,16.81
2018-05-11T10:06:58.295Z,16.96
2018-05-11T10:09:26.413Z,16.93
2018-05-11T10:11:54.554Z,17.12
2018-05-11T10:14:22.688Z,16.96
2018-05-11T10:16:50.794Z,16.91
2018-05-11T10:19:18.937Z,17.15
2018-05-11T10:21:47.098Z,17.40
2018-05-11T10:24:15.199Z,17.40
2018-05-11T10:26:43.322Z,17.45
2018-05-11T10:29:11.562Z,17.93
2018-05-11T10:31:39.579Z,18.19
2018-05-11T10:34:07.711Z,18.34
2018-05-11T10:36:35.850Z,18.36
2018-05-11T10:39:03.969Z,17.85
2018-05-11T10:41:32.123Z,17.81
2018-05-11T10:44:00.337Z,18.11
2018-05-11T10:46:28.466Z,18.00
2018-05-11T10:48:56.624Z,17.92
2018-05-11T10:51:24.741Z,17.96
2018-05-11T10:53:52.869Z,17.88
2018-05-11T10:56:21.025Z,18.00
2018-05-11T10:58:49.156Z,17.88
2018-05-11T11:01:17.281Z,17.91
2018-05-11T11:03:45.417Z,18.16
2018-05-11T11:06:13.554Z,18.26
2018-05-11T11:08:41.695Z,18.36
2018-05-11T11:11:09.825Z,18.31
2018-05-11T11:13:37.968Z,18.42
2018-05-11T11:16:06.069Z,18.74
2018-05-11T11:18:34.221Z,18.65
2018-05-11T11:21:02.341Z,18.39
2018-05-11T11:23:30.450Z,18.57
2018-05-11T11:25:58.653Z,18.68
2018-05-11T11:28:26.713Z,18.77
2018-05-11T11:30:56.826Z,18.53
2018-05-11T11:33:24.966Z,18.78
2018-05-11T11:35:53.075Z,18.82
2018-05-11T11:38:21.191Z,18.84
2018-05-11T11:40:49.317Z,18.77
2018-05-11T11:43:17.445Z,18.79
2018-05-11T11:45:45.578Z,19.00
2018-05-11T11:48:13.734Z,19.28
2018-05-11T11:50:41.839Z,19.10
2018-05-11T11:53:13.578Z,18.77
2018-05-11T11:55:41.962Z,18.57
2018-05-11T11:58:10.070Z,18.68
2018-05-11T12:00:41.515Z,18.69
2018-05-11T12:03:09.688Z,18.62
2018-05-11T12:05:37.810Z,18.71
2018-05-11T12:08:05.946Z,18.97
2018-05-11T12:10:34.085Z,19.07
2018-05-11T12:13:02.229Z,19.26
2018-05-11T12:15:30.345Z,19.42
2018-05-11T12:17:58.497Z,19.73
2018-05-11T12:20:26.655Z,19.75
2018-05-11T12:22:54.757Z,19.72
2018-05-11T12:25:22.896Z,19.80
2018-05-11T12:27:51.035Z,19.97
2018-05-11T12:30:19.154Z,20.11
2018-05-11T12:32:47.272Z,19.99
2018-05-11T12:35:15.399Z,19.77
2018-05-11T12:37:43.535Z,19.56
2018-05-11T12:40:11.684Z,19.77
2018-05-11T12:42:39.778Z,19.96
2018-05-11T12:45:07.895Z,20.20
2018-05-11T12:47:36.042Z,20.40
2018-05-11T12:50:04.155Z,20.61
2018-05-11T12:52:35.444Z,20.69
2018-05-11T12:55:03.577Z,20.47
2018-05-11T12:57:31.719Z,20.48
2018-05-11T12:59:59.836Z,20.53
2018-05-11T13:02:27.976Z,20.71
2018-05-11T13:04:56.110Z,20.86
2018-05-11T13:07:24.251Z,20.93
2018-05-11T13:09:52.390Z,20.78
2018-05-11T13:12:20.549Z,20.87
2018-05-11T13:14:48.680Z,20.77
2018-05-11T13:17:16.796Z,20.60
2018-05-11T13:19:44.909Z,20.75
2018-05-11T13:22:13.025Z,20.89
2018-05-11T13:24:41.203Z,21.12
2018-05-11T13:27:09.394Z,20.94
2018-05-11T13:29:37.579Z,20.85
2018-05-11T13:32:05.755Z,20.73
2018-05-11T13:34:33.953Z,20.84
2018-05-11T13:37:02.534Z,20.45
2018-05-11T13:39:30.690Z,20.22
2018-05-11T13:41:58.797Z,20.42
2018-05-11T13:44:27.033Z,20.36
2018-05-11T13:46:55.177Z,20.50
2018-05-11T13:49:23.289Z,20.56
2018-05-11T13:51:51.424Z,20.65
2018-05-11T13:54:19.571Z,20.81
2018-05-11T13:56:47.688Z,20.78
2018-05-11T13:59:16.006Z,20.73
2018-05-11T14:01:44.208Z,20.87
2018-05-11T14:04:12.378Z,20.80
2018-05-11T14:06:40.497Z,20.84
2018-05-11T14:09:08.659Z,20.80
2018-05-11T14:11:36.772Z,20.94
2018-05-11T14:14:04.912Z,20.90
2018-05-11T14:16:33.037Z,20.57
2018-05-11T14:19:01.180Z,20.34
2018-05-11T14:21:29.323Z,20.33
2018-05-11T14:23:57.431Z,20.37
2018-05-11T14:26:25.571Z,20.47
2018-05-11T14:28:53.667Z,20.61
2018-05-11T14:31:21.958Z,20.67
2018-05-11T14:33:50.094Z,20.65
2018-05-11T14:36:18.215Z,20.56
2018-05-11T14:38:46.355Z,20.48
2018-05-11T14:41:14.537Z,20.69
2018-05-11T14:43:42.752Z,20.79
2018-05-11T14:46:10.907Z,20.71
2018-05-11T14:48:39.020Z,20.78
2018-05-11T14:51:07.129Z,20.76
2018-05-11T14:53:35.265Z,20.88
2018-05-11T14:56:03.385Z,20.91
2018-05-11T14:58:31.527Z,20.72
2018-05-11T15:00:59.651Z,20.57
2018-05-11T15:03:27.766Z,20.74
2018-05-11T15:05:55.868Z,20.87
2018-05-11T15:08:23.993Z,21.01
2018-05-11T15:10:52.109Z,21.09
2018-05-11T15:13:20.225Z,21.18
2018-05-11T15:15:48.350Z,21.14
2018-05-11T15:18:16.471Z,21.17
2018-05-11T15:20:44.614Z,20.96
2018-05-11T15:23:12.737Z,20.78
2018-05-11T15:25:40.881Z,20.79
2018-05-11T15:28:09.011Z,20.79
2018-05-11T15:30:37.552Z,20.74
2018-05-11T15:33:05.674Z,20.78
2018-05-11T15:35:33.794Z,20.87
2018-05-11T15:38:01.907Z,20.91
2018-05-11T15:40:30.157Z,20.88
2018-05-11T15:42:58.127Z,20.96
2018-05-11T15:45:26.261Z,21.02
2018-05-11T15:47:54.400Z,20.99
2018-05-11T15:50:22.526Z,21.03
2018-05-11T15:52:50.649Z,21.02
2018-05-11T15:55:18.765Z,20.93
2018-05-11T15:57:46.880Z,20.76
2018-05-11T16:00:18.845Z,20.73
2018-05-11T16:02:46.968Z,20.75
2018-05-11T16:05:15.154Z,20.81
2018-05-11T16:07:43.376Z,20.86
2018-05-11T16:10:11.474Z,20.92
2018-05-11T16:12:39.735Z,20.91
2018-05-11T16:15:07.718Z,20.98
2018-05-11T16:17:35.837Z,21.01
2018-05-11T16:20:03.983Z,20.98
2018-05-11T16:22:32.356Z,20.94
2018-05-11T16:25:00.451Z,21.06
2018-05-11T16:27:28.578Z,20.97
2018-05-11T16:29:56.727Z,20.86
2018-05-11T16:32:24.849Z,20.75
2018-05-11T16:34:52.965Z,20.71
2018-05-11T16:37:21.089Z,20.68
2018-05-11T16:39:49.228Z,20.73
2018-05-11T16:42:17.356Z,20.73
2018-05-11T16:44:45.465Z,20.67
2018-05-11T16:47:13.562Z,20.66
2018-05-11T16:49:41.748Z,20.65
2018-05-11T16:52:09.903Z,20.57
2018-05-11T16:54:37.996Z,20.53
2018-05-11T16:57:06.109Z,20.57
2018-05-11T16:59:34.245Z,20.55
2018-05-11T17:02:02.360Z,20.51
2018-05-11T17:04:30.469Z,20.48
2018-05-11T17:06:58.597Z,20.42
2018-05-11T17:09:26.727Z,20.39
2018-05-11T17:11:54.868Z,20.35
2018-05-11T17:14:22.975Z,20.36
2018-05-11T17:16:51.086Z,20.33
2018-05-11T17:19:19.339Z,20.30
2018-05-11T17:21:47.540Z,20.29
2018-05-11T17:24:15.657Z,20.29
2018-05-11T17:26:43.770Z,20.26
2018-05-11T17:29:11.904Z,20.27
2018-05-11T17:31:40.036Z,20.28
2018-05-11T17:34:08.160Z,20.29
2018-05-11T17:36:36.267Z,20.28
2018-05-11T17:39:04.408Z,20.29
2018-05-11T17:41:32.552Z,20.30
2018-05-11T17:44:00.612Z,20.25
2018-05-11T17:46:28.733Z,20.17
2018-05-11T17:48:56.868Z,20.15
2018-05-11T17:51:25.009Z,20.14
2018-05-11T17:53:53.125Z,20.14
2018-05-11T17:56:21.296Z,20.12
2018-05-11T17:58:49.456Z,20.06
2018-05-11T18:01:17.573Z,20.02
2018-05-11T18:03:45.676Z,19.98
2018-05-11T18:06:14.061Z,19.90
2018-05-11T18:08:42.167Z,19.86
2018-05-11T18:11:10.267Z,19.85
2018-05-11T18:13:39.306Z,19.84
2018-05-11T18:16:07.657Z,19.81
2018-05-11T18:18:35.799Z,19.79
2018-05-11T18:21:03.913Z,19.75
2018-05-11T18:23:32.019Z,19.74
2018-05-11T18:26:00.120Z,19.75
2018-05-11T18:28:28.267Z,19.75
2018-05-11T18:30:56.447Z,19.75
2018-05-11T18:33:24.516Z,19.75
2018-05-11T18:35:52.633Z,19.67
2018-05-11T18:38:20.739Z,19.64
2018-05-11T18:40:48.857Z,19.61
2018-05-11T18:43:16.982Z,19.58
2018-05-11T18:45:45.102Z,19.54
2018-05-11T18:48:13.221Z,19.50
2018-05-11T18:50:41.334Z,19.46
2018-05-11T18:53:09.648Z,19.43
2018-05-11T18:55:37.582Z,19.45
2018-05-11T18:58:05.869Z,19.43
2018-05-11T19:00:34.069Z,19.32
2018-05-11T19:03:02.267Z,19.25
2018-05-11T19:05:30.484Z,19.26
2018-05-11T19:07:58.593Z,19.28
2018-05-11T19:10:26.719Z,19.25
2018-05-11T19:12:54.856Z,19.25
2018-05-11T19:15:22.969Z,19.21
2018-05-11T19:17:51.112Z,19.18
2018-05-11T19:20:19.225Z,19.12
2018-05-11T19:22:47.357Z,19.07
2018-05-11T19:25:15.462Z,19.12
2018-05-11T19:27:43.596Z,19.09
2018-05-11T19:30:11.704Z,19.12
2018-05-11T19:32:39.811Z,19.07
2018-05-11T19:35:07.931Z,19.04
2018-05-11T19:37:36.045Z,18.98
2018-05-11T19:40:04.180Z,18.95
2018-05-11T19:42:32.314Z,18.90
2018-05-11T19:45:00.554Z,18.95
2018-05-11T19:47:28.753Z,18.90
2018-05-11T19:49:57.044Z,18.84
2018-05-11T19:52:25.189Z,18.87
2018-05-11T19:54:53.330Z,18.83
2018-05-11T19:57:21.479Z,18.84
2018-05-11T19:59:49.586Z,18.76
2018-05-11T20:02:17.674Z,18.77
2018-05-11T20:04:45.906Z,18.83
2018-05-11T20:07:14.095Z,18.72
2018-05-11T20:09:42.259Z,18.68
2018-05-11T20:12:10.599Z,18.69
2018-05-11T20:14:38.727Z,18.61
2018-05-11T20:17:06.846Z,18.66
2018-05-11T20:19:34.992Z,18.60
2018-05-11T20:22:03.097Z,18.62
2018-05-11T20:24:31.236Z,18.64
2018-05-11T20:26:59.375Z,18.67
2018-05-11T20:29:27.503Z,18.70
2018-05-11T20:31:55.612Z,18.70
2018-05-11T20:34:23.755Z,18.61
2018-05-11T20:36:51.877Z,18.51
2018-05-11T20:39:20.374Z,18.56
2018-05-11T20:41:48.518Z,18.52
2018-05-11T20:44:16.638Z,18.42
2018-05-11T20:46:44.738Z,18.53
2018-05-11T20:49:12.869Z,18.60
2018-05-11T20:51:41.001Z,18.47
2018-05-11T20:54:09.131Z,18.53
2018-05-11T20:56:37.242Z,18.48
2018-05-11T20:59:05.346Z,18.47
2018-05-11T21:01:33.480Z,18.40
2018-05-11T21:04:01.608Z,18.40
2018-05-11T21:06:29.744Z,18.46
2018-05-11T21:08:57.894Z,18.47
2018-05-11T21:11:26.055Z,18.44
2018-05-11T21:13:57.779Z,18.51
2018-05-11T21:16:25.905Z,18.43
2018-05-11T21:18:54.020Z,18.44
2018-05-11T21:21:22.163Z,18.44
2018-05-11T21:23:50.310Z,18.51
2018-05-11T21:26:18.436Z,18.49
2018-05-11T21:28:46.534Z,18.46
2018-05-11T21:31:14.664Z,18.46
2018-05-11T21:33:42.779Z,18.39
2018-05-11T21:36:10.916Z,18.37
2018-05-11T21:38:39.026Z,18.20
2018-05-11T21:41:07.720Z,18.11
2018-05-11T21:43:35.817Z,18.10
2018-05-11T21:46:03.941Z,18.03
2018-05-11T21:48:32.124Z,18.01
2018-05-11T21:51:00.336Z,18.03
2018-05-11T21:53:28.492Z,17.98
2018-05-11T21:55:56.859Z,18.01
2018-05-11T21:58:25.037Z,18.07
2018-05-11T22:00:53.190Z,18.09
2018-05-11T22:03:21.389Z,17.95
2018-05-11T22:05:49.682Z,18.04
2018-05-11T22:08:17.683Z,18.09
2018-05-11T22:10:46.025Z,18.11
2018-05-11T22:13:14.145Z,18.12
2018-05-11T22:15:42.258Z,18.10
2018-05-11T22:18:10.394Z,17.97
2018-05-11T22:20:38.491Z,18.05
2018-05-11T22:23:06.617Z,17.95
2018-05-11T22:25:34.730Z,18.01
2018-05-11T22:28:02.866Z,18.02
2018-05-11T22:30:30.981Z,18.10
2018-05-11T22:32:59.127Z,18.02
2018-05-11T22:35:27.262Z,18.10
2018-05-11T22:37:55.388Z,18.13
2018-05-11T22:40:23.534Z,18.12
2018-05-11T22:42:53.537Z,17.94
2018-05-11T22:45:21.650Z,17.85
2018-05-11T22:47:49.771Z,17.92
2018-05-11T22:50:17.888Z,17.82
2018-05-11T22:52:46.008Z,17.84
2018-05-11T22:55:14.133Z,17.90
2018-05-11T22:57:42.252Z,17.83
2018-05-11T23:00:10.368Z,17.82
2018-05-11T23:02:38.528Z,17.82
2018-05-11T23:05:06.644Z,17.81
2018-05-11T23:07:34.758Z,17.86
2018-05-11T23:10:02.879Z,17.67
2018-05-11T23:12:30.980Z,17.70
2018-05-11T23:14:59.111Z,17.70
2018-05-11T23:17:27.234Z,17.64
2018-05-11T23:19:55.355Z,17.63
2018-05-11T23:22:23.501Z,17.57
2018-05-11T23:24:51.615Z,17.41
2018-05-11T23:27:19.752Z,17.44
2018-05-11T23:29:47.972Z,17.47
2018-05-11T23:32:16.108Z,17.47
2018-05-11T23:34:44.215Z,17.41
2018-05-11T23:37:12.360Z,17.29
2018-05-11T23:39:40.506Z,17.17
2018-05-11T23:42:08.636Z,17.14
2018-05-11T23:44:36.733Z,17.12
2018-05-11T23:47:04.884Z,17.09
2018-05-11T23:49:32.975Z,16.99
2018-05-11T23:52:04.304Z,17.02
2018-05-11T23:54:32.453Z,16.96
2018-05-11T23:57:00.592Z,16.96
2018-05-11T23:59:28.709Z,16.96
